sensor_id;sensor_type;location;lat;lon;timestamp;P1;durP1;ratioP1;P2;durP2;ratioP2
51499;SDS011;39101;53.478;6.158;2023-11-19T00:02:08;35.17;;;8.63;;
51499;SDS011;39101;53.478;6.158;2023-11-19T00:04:40;25.60;;;6.83;;
51499;SDS011;39101;53.478;6.158;2023-11-19T00:07:05;27.57;;;8.27;;
51499;SDS011;39101;53.478;6.158;2023-11-19T00:09:35;24.00;;;7.67;;
51499;SDS011;39101;53.478;6.158;2023-11-19T00:12:06;22.77;;;6.40;;
51499;SDS011;39101;53.478;6.158;2023-11-19T00:14:32;22.08;;;6.30;;
51499;SDS011;39101;53.478;6.158;2023-11-19T00:16:59;25.00;;;5.43;;
51499;SDS011;39101;53.478;6.158;2023-11-19T00:19:25;26.93;;;7.00;;
51499;SDS011;39101;53.478;6.158;2023-11-19T00:21:51;25.90;;;5.73;;
51499;SDS011;39101;53.478;6.158;2023-11-19T00:24:17;29.30;;;6.27;;
51499;SDS011;39101;53.478;6.158;2023-11-19T00:26:43;24.20;;;5.47;;
51499;SDS011;39101;53.478;6.158;2023-11-19T00:29:09;30.50;;;6.77;;
51499;SDS011;39101;53.478;6.158;2023-11-19T00:31:35;28.73;;;5.77;;
51499;SDS011;39101;53.478;6.158;2023-11-19T00:34:01;28.13;;;6.65;;
51499;SDS011;39101;53.478;6.158;2023-11-19T00:36:27;23.80;;;5.90;;
51499;SDS011;39101;53.478;6.158;2023-11-19T00:38:53;29.10;;;5.73;;
51499;SDS011;39101;53.478;6.158;2023-11-19T00:41:19;19.75;;;4.93;;
51499;SDS011;39101;53.478;6.158;2023-11-19T00:43:45;31.33;;;5.80;;
51499;SDS011;39101;53.478;6.158;2023-11-19T00:46:11;26.42;;;6.68;;
51499;SDS011;39101;53.478;6.158;2023-11-19T00:48:38;36.08;;;6.20;;
51499;SDS011;39101;53.478;6.158;2023-11-19T00:51:04;31.83;;;5.65;;
51499;SDS011;39101;53.478;6.158;2023-11-19T00:53:30;38.95;;;5.70;;
51499;SDS011;39101;53.478;6.158;2023-11-19T00:55:59;24.85;;;5.03;;
51499;SDS011;39101;53.478;6.158;2023-11-19T00:58:25;30.23;;;6.27;;
51499;SDS011;39101;53.478;6.158;2023-11-19T01:00:51;27.92;;;6.22;;
51499;SDS011;39101;53.478;6.158;2023-11-19T01:03:16;34.08;;;5.88;;
51499;SDS011;39101;53.478;6.158;2023-11-19T01:05:42;29.75;;;6.55;;
51499;SDS011;39101;53.478;6.158;2023-11-19T01:08:09;25.23;;;5.45;;
51499;SDS011;39101;53.478;6.158;2023-11-19T01:10:36;27.95;;;6.22;;
51499;SDS011;39101;53.478;6.158;2023-11-19T01:13:02;32.15;;;6.53;;
51499;SDS011;39101;53.478;6.158;2023-11-19T01:15:31;28.27;;;5.03;;
51499;SDS011;39101;53.478;6.158;2023-11-19T01:17:57;30.17;;;5.13;;
51499;SDS011;39101;53.478;6.158;2023-11-19T01:20:22;31.23;;;5.38;;
51499;SDS011;39101;53.478;6.158;2023-11-19T01:22:49;26.55;;;6.55;;
51499;SDS011;39101;53.478;6.158;2023-11-19T01:25:15;35.28;;;6.53;;
51499;SDS011;39101;53.478;6.158;2023-11-19T01:27:41;33.15;;;6.10;;
51499;SDS011;39101;53.478;6.158;2023-11-19T01:30:07;32.90;;;5.85;;
51499;SDS011;39101;53.478;6.158;2023-11-19T01:32:35;31.33;;;6.00;;
51499;SDS011;39101;53.478;6.158;2023-11-19T01:35:02;26.67;;;5.80;;
51499;SDS011;39101;53.478;6.158;2023-11-19T01:37:29;26.45;;;6.40;;
51499;SDS011;39101;53.478;6.158;2023-11-19T01:39:56;30.67;;;6.05;;
51499;SDS011;39101;53.478;6.158;2023-11-19T01:42:22;37.08;;;5.60;;
51499;SDS011;39101;53.478;6.158;2023-11-19T01:44:57;40.55;;;6.93;;
51499;SDS011;39101;53.478;6.158;2023-11-19T01:47:23;35.33;;;6.18;;
51499;SDS011;39101;53.478;6.158;2023-11-19T01:49:49;41.07;;;8.47;;
51499;SDS011;39101;53.478;6.158;2023-11-19T01:52:16;42.28;;;7.65;;
51499;SDS011;39101;53.478;6.158;2023-11-19T01:54:42;34.70;;;6.65;;
51499;SDS011;39101;53.478;6.158;2023-11-19T01:57:07;30.13;;;5.93;;
51499;SDS011;39101;53.478;6.158;2023-11-19T01:59:34;29.63;;;6.93;;
51499;SDS011;39101;53.478;6.158;2023-11-19T02:02:00;38.50;;;7.75;;
51499;SDS011;39101;53.478;6.158;2023-11-19T02:04:26;46.27;;;6.70;;
51499;SDS011;39101;53.478;6.158;2023-11-19T02:06:52;43.05;;;6.57;;
51499;SDS011;39101;53.478;6.158;2023-11-19T02:09:21;36.93;;;6.77;;
51499;SDS011;39101;53.478;6.158;2023-11-19T02:11:47;37.27;;;5.87;;
51499;SDS011;39101;53.478;6.158;2023-11-19T02:14:16;37.77;;;6.97;;
51499;SDS011;39101;53.478;6.158;2023-11-19T02:16:42;35.25;;;6.50;;
51499;SDS011;39101;53.478;6.158;2023-11-19T02:19:08;37.90;;;6.97;;
51499;SDS011;39101;53.478;6.158;2023-11-19T02:21:36;43.10;;;9.15;;
51499;SDS011;39101;53.478;6.158;2023-11-19T02:24:06;38.53;;;7.27;;
51499;SDS011;39101;53.478;6.158;2023-11-19T02:26:58;37.90;;;7.53;;
51499;SDS011;39101;53.478;6.158;2023-11-19T02:29:30;39.57;;;7.20;;
51499;SDS011;39101;53.478;6.158;2023-11-19T02:31:56;36.33;;;7.63;;
51499;SDS011;39101;53.478;6.158;2023-11-19T02:34:22;37.05;;;6.43;;
51499;SDS011;39101;53.478;6.158;2023-11-19T02:36:47;34.20;;;7.55;;
51499;SDS011;39101;53.478;6.158;2023-11-19T02:39:14;38.53;;;7.17;;
51499;SDS011;39101;53.478;6.158;2023-11-19T02:41:46;42.50;;;7.00;;
51499;SDS011;39101;53.478;6.158;2023-11-19T02:44:12;41.13;;;7.13;;
51499;SDS011;39101;53.478;6.158;2023-11-19T02:46:38;36.60;;;8.20;;
51499;SDS011;39101;53.478;6.158;2023-11-19T02:49:07;33.73;;;6.43;;
51499;SDS011;39101;53.478;6.158;2023-11-19T02:51:32;36.23;;;6.73;;
51499;SDS011;39101;53.478;6.158;2023-11-19T02:53:59;37.80;;;7.00;;
51499;SDS011;39101;53.478;6.158;2023-11-19T02:56:25;45.37;;;7.97;;
51499;SDS011;39101;53.478;6.158;2023-11-19T02:58:51;35.03;;;7.30;;
51499;SDS011;39101;53.478;6.158;2023-11-19T03:01:24;39.70;;;6.40;;
51499;SDS011;39101;53.478;6.158;2023-11-19T03:04:01;30.35;;;6.78;;
51499;SDS011;39101;53.478;6.158;2023-11-19T03:06:27;38.83;;;7.67;;
51499;SDS011;39101;53.478;6.158;2023-11-19T03:08:54;34.43;;;8.80;;
51499;SDS011;39101;53.478;6.158;2023-11-19T03:11:20;41.30;;;8.02;;
51499;SDS011;39101;53.478;6.158;2023-11-19T03:13:46;35.83;;;7.73;;
51499;SDS011;39101;53.478;6.158;2023-11-19T03:16:12;39.87;;;7.73;;
51499;SDS011;39101;53.478;6.158;2023-11-19T03:18:38;39.03;;;8.70;;
51499;SDS011;39101;53.478;6.158;2023-11-19T03:21:05;37.90;;;7.97;;
51499;SDS011;39101;53.478;6.158;2023-11-19T03:23:33;33.57;;;7.20;;
51499;SDS011;39101;53.478;6.158;2023-11-19T03:25:59;28.67;;;6.70;;
51499;SDS011;39101;53.478;6.158;2023-11-19T03:28:28;33.37;;;7.60;;
51499;SDS011;39101;53.478;6.158;2023-11-19T03:30:54;32.17;;;6.33;;
51499;SDS011;39101;53.478;6.158;2023-11-19T03:33:20;35.37;;;7.67;;
51499;SDS011;39101;53.478;6.158;2023-11-19T03:35:46;39.30;;;7.90;;
51499;SDS011;39101;53.478;6.158;2023-11-19T03:38:12;36.90;;;7.20;;
51499;SDS011;39101;53.478;6.158;2023-11-19T03:40:38;42.92;;;8.48;;
51499;SDS011;39101;53.478;6.158;2023-11-19T03:43:04;33.20;;;7.97;;
51499;SDS011;39101;53.478;6.158;2023-11-19T03:45:30;41.00;;;7.67;;
51499;SDS011;39101;53.478;6.158;2023-11-19T03:47:55;38.38;;;8.75;;
51499;SDS011;39101;53.478;6.158;2023-11-19T03:50:21;33.40;;;6.95;;
51499;SDS011;39101;53.478;6.158;2023-11-19T03:52:47;32.23;;;7.97;;
51499;SDS011;39101;53.478;6.158;2023-11-19T03:55:13;36.83;;;7.93;;
51499;SDS011;39101;53.478;6.158;2023-11-19T03:57:39;38.50;;;6.57;;
51499;SDS011;39101;53.478;6.158;2023-11-19T04:00:05;34.70;;;6.97;;
51499;SDS011;39101;53.478;6.158;2023-11-19T04:02:36;34.77;;;6.87;;
51499;SDS011;39101;53.478;6.158;2023-11-19T04:05:02;40.13;;;8.10;;
51499;SDS011;39101;53.478;6.158;2023-11-19T04:07:29;38.50;;;8.45;;
51499;SDS011;39101;53.478;6.158;2023-11-19T04:09:55;32.23;;;7.63;;
51499;SDS011;39101;53.478;6.158;2023-11-19T04:12:20;44.00;;;7.33;;
51499;SDS011;39101;53.478;6.158;2023-11-19T04:14:47;40.20;;;7.93;;
51499;SDS011;39101;53.478;6.158;2023-11-19T04:17:12;38.90;;;7.33;;
51499;SDS011;39101;53.478;6.158;2023-11-19T04:19:38;35.27;;;6.90;;
51499;SDS011;39101;53.478;6.158;2023-11-19T04:22:06;40.53;;;7.87;;
51499;SDS011;39101;53.478;6.158;2023-11-19T04:24:33;41.22;;;7.03;;
51499;SDS011;39101;53.478;6.158;2023-11-19T04:26:59;48.20;;;7.30;;
51499;SDS011;39101;53.478;6.158;2023-11-19T04:29:24;38.58;;;8.07;;
51499;SDS011;39101;53.478;6.158;2023-11-19T04:31:50;44.72;;;7.82;;
51499;SDS011;39101;53.478;6.158;2023-11-19T04:34:16;43.15;;;8.20;;
51499;SDS011;39101;53.478;6.158;2023-11-19T04:36:41;40.73;;;7.23;;
51499;SDS011;39101;53.478;6.158;2023-11-19T04:39:08;39.60;;;8.23;;
51499;SDS011;39101;53.478;6.158;2023-11-19T04:41:41;35.70;;;7.60;;
51499;SDS011;39101;53.478;6.158;2023-11-19T04:44:14;40.60;;;7.77;;
51499;SDS011;39101;53.478;6.158;2023-11-19T04:46:41;48.43;;;8.77;;
51499;SDS011;39101;53.478;6.158;2023-11-19T04:49:09;42.13;;;8.10;;
51499;SDS011;39101;53.478;6.158;2023-11-19T04:51:42;39.83;;;7.77;;
51499;SDS011;39101;53.478;6.158;2023-11-19T04:54:09;42.87;;;8.00;;
51499;SDS011;39101;53.478;6.158;2023-11-19T04:56:35;53.27;;;9.03;;
51499;SDS011;39101;53.478;6.158;2023-11-19T04:59:05;36.65;;;7.22;;
51499;SDS011;39101;53.478;6.158;2023-11-19T05:01:34;35.15;;;6.80;;
51499;SDS011;39101;53.478;6.158;2023-11-19T05:04:00;44.23;;;8.33;;
51499;SDS011;39101;53.478;6.158;2023-11-19T05:06:29;44.85;;;9.52;;
51499;SDS011;39101;53.478;6.158;2023-11-19T05:08:56;41.30;;;8.85;;
51499;SDS011;39101;53.478;6.158;2023-11-19T05:11:23;35.38;;;8.65;;
51499;SDS011;39101;53.478;6.158;2023-11-19T05:13:49;41.40;;;8.33;;
51499;SDS011;39101;53.478;6.158;2023-11-19T05:16:15;44.00;;;8.87;;
51499;SDS011;39101;53.478;6.158;2023-11-19T05:18:42;40.50;;;7.97;;
51499;SDS011;39101;53.478;6.158;2023-11-19T05:21:08;49.57;;;8.20;;
51499;SDS011;39101;53.478;6.158;2023-11-19T05:23:34;37.30;;;7.68;;
51499;SDS011;39101;53.478;6.158;2023-11-19T05:26:03;47.20;;;9.93;;
51499;SDS011;39101;53.478;6.158;2023-11-19T05:28:29;54.30;;;9.43;;
51499;SDS011;39101;53.478;6.158;2023-11-19T05:30:54;41.73;;;9.07;;
51499;SDS011;39101;53.478;6.158;2023-11-19T05:33:20;41.83;;;8.63;;
51499;SDS011;39101;53.478;6.158;2023-11-19T05:35:46;37.50;;;7.23;;
51499;SDS011;39101;53.478;6.158;2023-11-19T05:38:12;41.93;;;8.10;;
51499;SDS011;39101;53.478;6.158;2023-11-19T05:40:38;53.57;;;9.13;;
51499;SDS011;39101;53.478;6.158;2023-11-19T05:43:04;44.67;;;8.93;;
51499;SDS011;39101;53.478;6.158;2023-11-19T05:45:30;44.67;;;8.47;;
51499;SDS011;39101;53.478;6.158;2023-11-19T05:47:57;53.47;;;9.60;;
51499;SDS011;39101;53.478;6.158;2023-11-19T05:50:22;57.13;;;9.73;;
51499;SDS011;39101;53.478;6.158;2023-11-19T05:52:48;42.73;;;9.40;;
51499;SDS011;39101;53.478;6.158;2023-11-19T05:55:14;36.13;;;6.70;;
51499;SDS011;39101;53.478;6.158;2023-11-19T05:57:40;44.53;;;7.97;;
51499;SDS011;39101;53.478;6.158;2023-11-19T06:00:06;49.17;;;10.10;;
51499;SDS011;39101;53.478;6.158;2023-11-19T06:02:34;40.67;;;8.97;;
51499;SDS011;39101;53.478;6.158;2023-11-19T06:05:00;36.00;;;8.07;;
51499;SDS011;39101;53.478;6.158;2023-11-19T06:07:26;46.57;;;9.03;;
51499;SDS011;39101;53.478;6.158;2023-11-19T06:09:52;35.80;;;8.20;;
51499;SDS011;39101;53.478;6.158;2023-11-19T06:12:18;42.17;;;8.70;;
51499;SDS011;39101;53.478;6.158;2023-11-19T06:14:44;52.43;;;10.23;;
51499;SDS011;39101;53.478;6.158;2023-11-19T06:17:09;45.17;;;8.40;;
51499;SDS011;39101;53.478;6.158;2023-11-19T06:19:36;58.50;;;10.33;;
51499;SDS011;39101;53.478;6.158;2023-11-19T06:22:03;47.03;;;8.47;;
51499;SDS011;39101;53.478;6.158;2023-11-19T06:24:29;51.47;;;8.33;;
51499;SDS011;39101;53.478;6.158;2023-11-19T06:26:54;50.53;;;8.80;;
51499;SDS011;39101;53.478;6.158;2023-11-19T06:29:20;50.17;;;10.27;;
51499;SDS011;39101;53.478;6.158;2023-11-19T06:31:46;58.83;;;10.93;;
51499;SDS011;39101;53.478;6.158;2023-11-19T06:34:14;47.63;;;8.23;;
51499;SDS011;39101;53.478;6.158;2023-11-19T06:36:40;47.50;;;10.03;;
51499;SDS011;39101;53.478;6.158;2023-11-19T06:39:05;48.17;;;8.53;;
51499;SDS011;39101;53.478;6.158;2023-11-19T06:41:31;51.17;;;9.20;;
51499;SDS011;39101;53.478;6.158;2023-11-19T06:43:57;43.43;;;8.67;;
51499;SDS011;39101;53.478;6.158;2023-11-19T06:46:23;39.70;;;7.10;;
51499;SDS011;39101;53.478;6.158;2023-11-19T06:48:49;51.37;;;10.37;;
51499;SDS011;39101;53.478;6.158;2023-11-19T06:51:14;40.63;;;9.07;;
51499;SDS011;39101;53.478;6.158;2023-11-19T06:53:42;45.60;;;8.40;;
51499;SDS011;39101;53.478;6.158;2023-11-19T06:56:22;49.87;;;8.40;;
51499;SDS011;39101;53.478;6.158;2023-11-19T06:58:48;52.77;;;9.97;;
51499;SDS011;39101;53.478;6.158;2023-11-19T07:01:18;51.00;;;9.02;;
51499;SDS011;39101;53.478;6.158;2023-11-19T07:03:45;51.00;;;9.83;;
51499;SDS011;39101;53.478;6.158;2023-11-19T07:06:13;46.33;;;8.80;;
51499;SDS011;39101;53.478;6.158;2023-11-19T07:08:42;60.70;;;8.90;;
51499;SDS011;39101;53.478;6.158;2023-11-19T07:11:12;51.53;;;9.93;;
51499;SDS011;39101;53.478;6.158;2023-11-19T07:13:39;51.00;;;9.43;;
51499;SDS011;39101;53.478;6.158;2023-11-19T07:16:06;46.33;;;7.63;;
51499;SDS011;39101;53.478;6.158;2023-11-19T07:18:35;43.30;;;8.97;;
51499;SDS011;39101;53.478;6.158;2023-11-19T07:21:01;57.97;;;12.07;;
51499;SDS011;39101;53.478;6.158;2023-11-19T07:23:28;48.07;;;9.17;;
51499;SDS011;39101;53.478;6.158;2023-11-19T07:25:53;46.80;;;9.40;;
51499;SDS011;39101;53.478;6.158;2023-11-19T07:28:19;42.87;;;7.63;;
51499;SDS011;39101;53.478;6.158;2023-11-19T07:30:45;44.13;;;9.30;;
51499;SDS011;39101;53.478;6.158;2023-11-19T07:33:11;51.50;;;8.50;;
51499;SDS011;39101;53.478;6.158;2023-11-19T07:35:38;51.07;;;9.67;;
51499;SDS011;39101;53.478;6.158;2023-11-19T07:38:06;46.27;;;7.97;;
51499;SDS011;39101;53.478;6.158;2023-11-19T07:40:32;41.57;;;8.60;;
51499;SDS011;39101;53.478;6.158;2023-11-19T07:42:57;41.83;;;8.87;;
51499;SDS011;39101;53.478;6.158;2023-11-19T07:45:23;53.00;;;11.13;;
51499;SDS011;39101;53.478;6.158;2023-11-19T07:47:48;40.07;;;10.00;;
51499;SDS011;39101;53.478;6.158;2023-11-19T07:50:16;53.20;;;9.33;;
51499;SDS011;39101;53.478;6.158;2023-11-19T07:52:44;53.70;;;10.10;;
51499;SDS011;39101;53.478;6.158;2023-11-19T07:55:10;57.77;;;10.90;;
51499;SDS011;39101;53.478;6.158;2023-11-19T07:57:35;44.93;;;8.83;;
51499;SDS011;39101;53.478;6.158;2023-11-19T08:00:02;41.77;;;8.70;;
51499;SDS011;39101;53.478;6.158;2023-11-19T08:02:28;44.83;;;8.23;;
51499;SDS011;39101;53.478;6.158;2023-11-19T08:04:54;64.93;;;10.20;;
51499;SDS011;39101;53.478;6.158;2023-11-19T08:07:20;42.03;;;7.57;;
51499;SDS011;39101;53.478;6.158;2023-11-19T08:09:47;47.73;;;9.23;;
51499;SDS011;39101;53.478;6.158;2023-11-19T08:12:12;48.20;;;8.40;;
51499;SDS011;39101;53.478;6.158;2023-11-19T08:14:42;36.15;;;7.78;;
51499;SDS011;39101;53.478;6.158;2023-11-19T08:17:09;44.30;;;8.17;;
51499;SDS011;39101;53.478;6.158;2023-11-19T08:19:34;40.43;;;8.67;;
51499;SDS011;39101;53.478;6.158;2023-11-19T08:22:00;49.33;;;8.47;;
51499;SDS011;39101;53.478;6.158;2023-11-19T08:24:26;44.17;;;8.77;;
51499;SDS011;39101;53.478;6.158;2023-11-19T08:26:51;51.03;;;9.13;;
51499;SDS011;39101;53.478;6.158;2023-11-19T08:29:17;50.17;;;8.97;;
51499;SDS011;39101;53.478;6.158;2023-11-19T08:31:43;44.30;;;8.83;;
51499;SDS011;39101;53.478;6.158;2023-11-19T08:34:08;50.57;;;8.03;;
51499;SDS011;39101;53.478;6.158;2023-11-19T08:36:34;47.80;;;8.87;;
51499;SDS011;39101;53.478;6.158;2023-11-19T08:39:00;48.93;;;9.70;;
51499;SDS011;39101;53.478;6.158;2023-11-19T08:41:26;48.07;;;8.50;;
51499;SDS011;39101;53.478;6.158;2023-11-19T08:43:52;40.23;;;7.67;;
51499;SDS011;39101;53.478;6.158;2023-11-19T08:46:18;49.73;;;8.57;;
51499;SDS011;39101;53.478;6.158;2023-11-19T08:48:43;47.97;;;7.60;;
51499;SDS011;39101;53.478;6.158;2023-11-19T08:51:09;50.43;;;8.93;;
51499;SDS011;39101;53.478;6.158;2023-11-19T08:53:35;45.90;;;9.67;;
51499;SDS011;39101;53.478;6.158;2023-11-19T08:56:00;53.30;;;8.97;;
51499;SDS011;39101;53.478;6.158;2023-11-19T08:58:28;46.80;;;9.87;;
51499;SDS011;39101;53.478;6.158;2023-11-19T09:00:53;43.35;;;8.85;;
51499;SDS011;39101;53.478;6.158;2023-11-19T09:03:20;52.30;;;9.67;;
51499;SDS011;39101;53.478;6.158;2023-11-19T09:05:46;43.00;;;7.78;;
51499;SDS011;39101;53.478;6.158;2023-11-19T09:08:12;36.55;;;8.25;;
51499;SDS011;39101;53.478;6.158;2023-11-19T09:10:37;49.23;;;9.00;;
51499;SDS011;39101;53.478;6.158;2023-11-19T09:13:03;46.13;;;8.30;;
51499;SDS011;39101;53.478;6.158;2023-11-19T09:15:29;51.10;;;10.07;;
51499;SDS011;39101;53.478;6.158;2023-11-19T09:17:55;41.07;;;9.50;;
51499;SDS011;39101;53.478;6.158;2023-11-19T09:20:21;43.40;;;8.33;;
51499;SDS011;39101;53.478;6.158;2023-11-19T09:22:47;45.50;;;7.60;;
51499;SDS011;39101;53.478;6.158;2023-11-19T09:25:12;44.23;;;8.57;;
51499;SDS011;39101;53.478;6.158;2023-11-19T09:27:42;45.80;;;8.73;;
51499;SDS011;39101;53.478;6.158;2023-11-19T09:30:08;45.10;;;8.23;;
51499;SDS011;39101;53.478;6.158;2023-11-19T09:32:34;52.13;;;9.10;;
51499;SDS011;39101;53.478;6.158;2023-11-19T09:35:00;38.70;;;8.63;;
51499;SDS011;39101;53.478;6.158;2023-11-19T09:37:26;45.57;;;8.53;;
51499;SDS011;39101;53.478;6.158;2023-11-19T09:39:51;48.23;;;9.83;;
51499;SDS011;39101;53.478;6.158;2023-11-19T09:42:18;50.73;;;8.67;;
51499;SDS011;39101;53.478;6.158;2023-11-19T09:44:44;45.47;;;7.57;;
51499;SDS011;39101;53.478;6.158;2023-11-19T09:47:12;46.38;;;8.48;;
51499;SDS011;39101;53.478;6.158;2023-11-19T09:49:39;41.67;;;7.80;;
51499;SDS011;39101;53.478;6.158;2023-11-19T09:52:05;41.53;;;8.52;;
51499;SDS011;39101;53.478;6.158;2023-11-19T09:54:30;45.83;;;7.87;;
51499;SDS011;39101;53.478;6.158;2023-11-19T09:56:57;41.55;;;6.90;;
51499;SDS011;39101;53.478;6.158;2023-11-19T09:59:27;47.58;;;9.77;;
51499;SDS011;39101;53.478;6.158;2023-11-19T10:01:55;42.67;;;7.80;;
51499;SDS011;39101;53.478;6.158;2023-11-19T10:04:21;45.50;;;8.15;;
51499;SDS011;39101;53.478;6.158;2023-11-19T10:06:48;39.00;;;7.63;;
51499;SDS011;39101;53.478;6.158;2023-11-19T10:09:16;38.63;;;8.45;;
51499;SDS011;39101;53.478;6.158;2023-11-19T10:11:41;39.97;;;7.95;;
51499;SDS011;39101;53.478;6.158;2023-11-19T10:14:07;51.28;;;8.05;;
51499;SDS011;39101;53.478;6.158;2023-11-19T10:16:34;39.35;;;8.88;;
51499;SDS011;39101;53.478;6.158;2023-11-19T10:19:00;40.20;;;7.95;;
51499;SDS011;39101;53.478;6.158;2023-11-19T10:21:26;46.03;;;9.25;;
51499;SDS011;39101;53.478;6.158;2023-11-19T10:23:56;40.90;;;7.80;;
51499;SDS011;39101;53.478;6.158;2023-11-19T10:26:23;43.15;;;8.38;;
51499;SDS011;39101;53.478;6.158;2023-11-19T10:28:49;40.70;;;7.88;;
51499;SDS011;39101;53.478;6.158;2023-11-19T10:31:15;41.08;;;8.23;;
51499;SDS011;39101;53.478;6.158;2023-11-19T10:33:43;44.33;;;8.63;;
51499;SDS011;39101;53.478;6.158;2023-11-19T10:36:10;43.55;;;8.27;;
51499;SDS011;39101;53.478;6.158;2023-11-19T10:38:39;42.65;;;7.47;;
51499;SDS011;39101;53.478;6.158;2023-11-19T10:41:06;48.75;;;9.27;;
51499;SDS011;39101;53.478;6.158;2023-11-19T10:43:42;42.70;;;7.88;;
51499;SDS011;39101;53.478;6.158;2023-11-19T10:46:10;37.95;;;7.45;;
51499;SDS011;39101;53.478;6.158;2023-11-19T10:48:38;37.67;;;7.78;;
51499;SDS011;39101;53.478;6.158;2023-11-19T10:51:04;45.75;;;8.02;;
51499;SDS011;39101;53.478;6.158;2023-11-19T10:53:38;35.60;;;7.22;;
51499;SDS011;39101;53.478;6.158;2023-11-19T10:56:05;50.20;;;9.05;;
51499;SDS011;39101;53.478;6.158;2023-11-19T10:58:35;42.17;;;7.78;;
51499;SDS011;39101;53.478;6.158;2023-11-19T11:01:07;42.23;;;7.87;;
51499;SDS011;39101;53.478;6.158;2023-11-19T11:03:41;43.67;;;8.30;;
51499;SDS011;39101;53.478;6.158;2023-11-19T11:06:11;48.40;;;8.90;;
51499;SDS011;39101;53.478;6.158;2023-11-19T11:08:38;45.75;;;9.07;;
51499;SDS011;39101;53.478;6.158;2023-11-19T11:11:04;32.83;;;6.22;;
51499;SDS011;39101;53.478;6.158;2023-11-19T11:13:33;42.78;;;8.10;;
51499;SDS011;39101;53.478;6.158;2023-11-19T11:16:02;37.05;;;6.63;;
51499;SDS011;39101;53.478;6.158;2023-11-19T11:18:31;39.90;;;8.00;;
51499;SDS011;39101;53.478;6.158;2023-11-19T11:21:01;40.55;;;7.00;;
51499;SDS011;39101;53.478;6.158;2023-11-19T11:23:37;43.05;;;8.30;;
51499;SDS011;39101;53.478;6.158;2023-11-19T11:26:29;44.47;;;7.60;;
51499;SDS011;39101;53.478;6.158;2023-11-19T11:39:30;41.42;;;8.80;;
51499;SDS011;39101;53.478;6.158;2023-11-19T11:50:11;41.88;;;8.07;;
51499;SDS011;39101;53.478;6.158;2023-11-19T11:55:24;40.53;;;8.23;;
51499;SDS011;39101;53.478;6.158;2023-11-19T11:57:51;39.30;;;7.82;;
51499;SDS011;39101;53.478;6.158;2023-11-19T12:00:26;34.00;;;7.15;;
51499;SDS011;39101;53.478;6.158;2023-11-19T12:03:01;33.35;;;8.07;;
51499;SDS011;39101;53.478;6.158;2023-11-19T12:05:27;44.42;;;7.10;;
51499;SDS011;39101;53.478;6.158;2023-11-19T12:08:04;41.00;;;9.10;;
51499;SDS011;39101;53.478;6.158;2023-11-19T12:10:34;50.70;;;8.65;;
51499;SDS011;39101;53.478;6.158;2023-11-19T12:13:08;51.75;;;8.68;;
51499;SDS011;39101;53.478;6.158;2023-11-19T12:15:45;59.90;;;9.32;;
51499;SDS011;39101;53.478;6.158;2023-11-19T12:18:19;47.63;;;8.68;;
51499;SDS011;39101;53.478;6.158;2023-11-19T12:20:46;60.67;;;10.30;;
51499;SDS011;39101;53.478;6.158;2023-11-19T12:23:11;48.10;;;8.60;;
51499;SDS011;39101;53.478;6.158;2023-11-19T12:25:37;57.20;;;11.00;;
51499;SDS011;39101;53.478;6.158;2023-11-19T12:28:03;33.92;;;8.15;;
51499;SDS011;39101;53.478;6.158;2023-11-19T12:30:29;45.80;;;8.18;;
51499;SDS011;39101;53.478;6.158;2023-11-19T12:32:55;36.42;;;7.18;;
51499;SDS011;39101;53.478;6.158;2023-11-19T12:35:21;48.80;;;7.82;;
51499;SDS011;39101;53.478;6.158;2023-11-19T12:37:48;53.75;;;10.55;;
51499;SDS011;39101;53.478;6.158;2023-11-19T12:40:15;46.85;;;9.77;;
51499;SDS011;39101;53.478;6.158;2023-11-19T12:42:47;48.75;;;9.80;;
51499;SDS011;39101;53.478;6.158;2023-11-19T12:45:13;42.90;;;8.70;;
51499;SDS011;39101;53.478;6.158;2023-11-19T12:47:41;51.10;;;9.10;;
51499;SDS011;39101;53.478;6.158;2023-11-19T12:50:08;45.28;;;8.07;;
51499;SDS011;39101;53.478;6.158;2023-11-19T12:52:37;42.08;;;7.70;;
51499;SDS011;39101;53.478;6.158;2023-11-19T12:55:04;39.80;;;8.55;;
51499;SDS011;39101;53.478;6.158;2023-11-19T12:57:39;51.80;;;11.00;;
51499;SDS011;39101;53.478;6.158;2023-11-19T13:00:06;51.63;;;8.93;;
51499;SDS011;39101;53.478;6.158;2023-11-19T13:02:55;56.30;;;9.23;;
51499;SDS011;39101;53.478;6.158;2023-11-19T13:05:26;51.33;;;8.27;;
51499;SDS011;39101;53.478;6.158;2023-11-19T13:08:03;48.53;;;8.85;;
51499;SDS011;39101;53.478;6.158;2023-11-19T13:10:31;44.70;;;8.60;;
51499;SDS011;39101;53.478;6.158;2023-11-19T13:13:17;47.50;;;8.18;;
51499;SDS011;39101;53.478;6.158;2023-11-19T13:15:43;50.40;;;8.30;;
51499;SDS011;39101;53.478;6.158;2023-11-19T13:18:10;29.52;;;6.60;;
51499;SDS011;39101;53.478;6.158;2023-11-19T13:20:36;40.58;;;8.68;;
51499;SDS011;39101;53.478;6.158;2023-11-19T13:23:02;43.85;;;7.22;;
51499;SDS011;39101;53.478;6.158;2023-11-19T13:25:29;37.53;;;7.90;;
51499;SDS011;39101;53.478;6.158;2023-11-19T13:27:55;41.22;;;8.40;;
51499;SDS011;39101;53.478;6.158;2023-11-19T13:30:22;37.58;;;6.82;;
51499;SDS011;39101;53.478;6.158;2023-11-19T13:32:48;34.92;;;6.93;;
51499;SDS011;39101;53.478;6.158;2023-11-19T13:35:15;43.85;;;9.05;;
51499;SDS011;39101;53.478;6.158;2023-11-19T13:37:44;42.70;;;7.63;;
51499;SDS011;39101;53.478;6.158;2023-11-19T13:40:10;40.38;;;7.30;;
51499;SDS011;39101;53.478;6.158;2023-11-19T13:42:39;40.40;;;7.85;;
51499;SDS011;39101;53.478;6.158;2023-11-19T13:45:15;43.67;;;8.13;;
51499;SDS011;39101;53.478;6.158;2023-11-19T13:47:41;34.75;;;6.68;;
51499;SDS011;39101;53.478;6.158;2023-11-19T13:50:09;41.55;;;8.02;;
51499;SDS011;39101;53.478;6.158;2023-11-19T13:52:36;49.00;;;9.05;;
51499;SDS011;39101;53.478;6.158;2023-11-19T13:55:06;45.38;;;7.60;;
51499;SDS011;39101;53.478;6.158;2023-11-19T13:57:34;40.97;;;7.90;;
51499;SDS011;39101;53.478;6.158;2023-11-19T14:00:01;40.78;;;7.85;;
51499;SDS011;39101;53.478;6.158;2023-11-19T14:02:32;40.80;;;7.47;;
51499;SDS011;39101;53.478;6.158;2023-11-19T14:04:58;45.85;;;11.10;;
51499;SDS011;39101;53.478;6.158;2023-11-19T14:07:24;38.30;;;6.53;;
51499;SDS011;39101;53.478;6.158;2023-11-19T14:09:49;43.70;;;8.02;;
51499;SDS011;39101;53.478;6.158;2023-11-19T14:12:15;45.65;;;7.80;;
51499;SDS011;39101;53.478;6.158;2023-11-19T14:14:41;38.42;;;7.15;;
51499;SDS011;39101;53.478;6.158;2023-11-19T14:17:07;33.03;;;7.75;;
51499;SDS011;39101;53.478;6.158;2023-11-19T14:19:33;41.58;;;8.88;;
51499;SDS011;39101;53.478;6.158;2023-11-19T14:21:59;33.28;;;6.95;;
51499;SDS011;39101;53.478;6.158;2023-11-19T14:24:25;30.30;;;5.75;;
51499;SDS011;39101;53.478;6.158;2023-11-19T14:26:51;37.80;;;7.75;;
51499;SDS011;39101;53.478;6.158;2023-11-19T14:29:17;37.15;;;6.78;;
51499;SDS011;39101;53.478;6.158;2023-11-19T14:31:42;41.65;;;7.38;;
51499;SDS011;39101;53.478;6.158;2023-11-19T14:34:08;41.70;;;7.72;;
51499;SDS011;39101;53.478;6.158;2023-11-19T14:36:34;43.95;;;7.63;;
51499;SDS011;39101;53.478;6.158;2023-11-19T14:39:00;43.03;;;7.13;;
51499;SDS011;39101;53.478;6.158;2023-11-19T14:41:25;32.20;;;7.70;;
51499;SDS011;39101;53.478;6.158;2023-11-19T14:43:51;34.25;;;7.07;;
51499;SDS011;39101;53.478;6.158;2023-11-19T14:46:17;45.28;;;7.85;;
51499;SDS011;39101;53.478;6.158;2023-11-19T14:48:43;48.05;;;8.02;;
51499;SDS011;39101;53.478;6.158;2023-11-19T14:51:09;41.70;;;7.32;;
51499;SDS011;39101;53.478;6.158;2023-11-19T14:53:34;41.20;;;6.90;;
51499;SDS011;39101;53.478;6.158;2023-11-19T14:56:00;37.15;;;7.63;;